sensor_id;sensor_type;location;lat;lon;timestamp;pressure;altitude;pressure_sealevel;temperature;humidity
29379;BME280;16362;47.202;15.258;2023-05-20T00:01:54;96551.34;;;11.53;100.00
29379;BME280;16362;47.202;15.258;2023-05-20T00:04:21;96546.16;;;11.52;100.00
29379;BME280;16362;47.202;15.258;2023-05-20T00:06:48;96550.34;;;11.54;100.00
29379;BME280;16362;47.202;15.258;2023-05-20T00:09:14;96559.34;;;11.53;100.00
29379;BME280;16362;47.202;15.258;2023-05-20T00:11:42;96560.34;;;11.52;100.00
29379;BME280;16362;47.202;15.258;2023-05-20T00:14:09;96556.69;;;11.53;100.00
29379;BME280;16362;47.202;15.258;2023-05-20T00:16:36;96559.34;;;11.53;100.00
29379;BME280;16362;47.202;15.258;2023-05-20T00:19:03;96551.53;;;11.43;100.00
29379;BME280;16362;47.202;15.258;2023-05-20T00:21:30;96544.53;;;11.42;100.00
29379;BME280;16362;47.202;15.258;2023-05-20T00:23:57;96543.16;;;11.46;100.00
29379;BME280;16362;47.202;15.258;2023-05-20T00:26:24;96548.34;;;11.48;100.00
29379;BME280;16362;47.202;15.258;2023-05-20T00:28:51;96547.34;;;11.49;100.00
29379;BME280;16362;47.202;15.258;2023-05-20T00:31:18;96547.16;;;11.51;100.00
29379;BME280;16362;47.202;15.258;2023-05-20T00:33:45;96547.34;;;11.49;100.00
29379;BME280;16362;47.202;15.258;2023-05-20T00:36:12;96539.69;;;11.46;100.00
29379;BME280;16362;47.202;15.258;2023-05-20T00:38:38;96546.03;;;11.45;100.00
29379;BME280;16362;47.202;15.258;2023-05-20T00:41:05;96551.00;;;11.48;100.00
29379;BME280;16362;47.202;15.258;2023-05-20T00:43:32;96550.00;;;11.49;100.00
29379;BME280;16362;47.202;15.258;2023-05-20T00:45:59;96545.50;;;11.50;100.00
29379;BME280;16362;47.202;15.258;2023-05-20T00:48:31;96537.66;;;11.48;100.00
29379;BME280;16362;47.202;15.258;2023-05-20T00:51:02;96543.16;;;11.46;100.00
29379;BME280;16362;47.202;15.258;2023-05-20T00:53:30;96538.00;;;11.45;100.00
29379;BME280;16362;47.202;15.258;2023-05-20T00:55:57;96530.00;;;11.45;100.00
29379;BME280;16362;47.202;15.258;2023-05-20T00:58:23;96539.69;;;11.46;100.00
29379;BME280;16362;47.202;15.258;2023-05-20T01:00:50;96541.00;;;11.50;100.00
29379;BME280;16362;47.202;15.258;2023-05-20T01:03:18;96537.66;;;11.48;100.00
29379;BME280;16362;47.202;15.258;2023-05-20T01:05:45;96535.50;;;11.43;100.00
29379;BME280;16362;47.202;15.258;2023-05-20T01:08:12;96523.16;;;11.42;100.00
29379;BME280;16362;47.202;15.258;2023-05-20T01:10:42;96524.47;;;11.46;100.00
29379;BME280;16362;47.202;15.258;2023-05-20T01:13:17;96526.97;;;11.48;100.00
29379;BME280;16362;47.202;15.258;2023-05-20T01:15:47;96532.31;;;11.48;100.00
29379;BME280;16362;47.202;15.258;2023-05-20T01:18:15;96516.63;;;11.45;100.00
29379;BME280;16362;47.202;15.258;2023-05-20T01:20:48;96512.09;;;11.45;100.00
29379;BME280;16362;47.202;15.258;2023-05-20T01:23:15;96509.97;;;11.41;100.00
29379;BME280;16362;47.202;15.258;2023-05-20T01:25:42;96511.59;;;11.42;100.00
29379;BME280;16362;47.202;15.258;2023-05-20T01:31:50;96512.47;;;11.42;100.00
29379;BME280;16362;47.202;15.258;2023-05-20T01:34:19;96514.94;;;11.44;100.00
29379;BME280;16362;47.202;15.258;2023-05-20T01:36:47;96508.44;;;11.46;100.00
29379;BME280;16362;47.202;15.258;2023-05-20T01:39:14;96509.25;;;11.47;100.00
29379;BME280;16362;47.202;15.258;2023-05-20T01:41:41;96505.59;;;11.48;100.00
29379;BME280;16362;47.202;15.258;2023-05-20T01:44:09;96509.56;;;11.52;100.00
29379;BME280;16362;47.202;15.258;2023-05-20T01:46:36;96510.56;;;11.51;100.00
29379;BME280;16362;47.202;15.258;2023-05-20T01:49:03;96509.59;;;11.44;100.00
29379;BME280;16362;47.202;15.258;2023-05-20T01:51:29;96509.59;;;11.44;100.00
29379;BME280;16362;47.202;15.258;2023-05-20T01:53:59;96510.28;;;11.46;100.00
29379;BME280;16362;47.202;15.258;2023-05-20T01:56:26;96507.59;;;11.46;100.00
29379;BME280;16362;47.202;15.258;2023-05-20T01:58:52;96511.59;;;11.50;100.00
29379;BME280;16362;47.202;15.258;2023-05-20T02:01:19;96508.06;;;11.50;100.00
29379;BME280;16362;47.202;15.258;2023-05-20T02:03:46;96509.06;;;11.49;100.00
29379;BME280;16362;47.202;15.258;2023-05-20T02:06:13;96499.25;;;11.49;100.00
29379;BME280;16362;47.202;15.258;2023-05-20T02:08:40;96501.41;;;11.45;100.00
29379;BME280;16362;47.202;15.258;2023-05-20T02:11:07;96500.59;;;11.45;100.00
29379;BME280;16362;47.202;15.258;2023-05-20T02:13:33;96492.91;;;11.42;100.00
29379;BME280;16362;47.202;15.258;2023-05-20T02:16:00;96496.06;;;11.45;100.00
29379;BME280;16362;47.202;15.258;2023-05-20T02:18:27;96490.91;;;11.44;100.00
29379;BME280;16362;47.202;15.258;2023-05-20T02:20:54;96494.88;;;11.48;100.00
29379;BME280;16362;47.202;15.258;2023-05-20T02:23:21;96505.22;;;11.51;100.00
29379;BME280;16362;47.202;15.258;2023-05-20T02:25:47;96489.22;;;11.43;100.00
29379;BME280;16362;47.202;15.258;2023-05-20T02:28:14;96492.09;;;11.41;100.00
29379;BME280;16362;47.202;15.258;2023-05-20T02:30:42;96493.56;;;11.44;100.00
29379;BME280;16362;47.202;15.258;2023-05-20T02:33:08;96482.88;;;11.44;100.00
29379;BME280;16362;47.202;15.258;2023-05-20T02:35:36;96484.88;;;11.42;100.00
29379;BME280;16362;47.202;15.258;2023-05-20T02:38:03;96480.03;;;11.45;100.00
29379;BME280;16362;47.202;15.258;2023-05-20T02:40:30;96470.88;;;11.40;100.00
29379;BME280;16362;47.202;15.258;2023-05-20T02:42:58;96464.88;;;11.38;100.00
29379;BME280;16362;47.202;15.258;2023-05-20T02:45:25;96469.03;;;11.40;100.00
29379;BME280;16362;47.202;15.258;2023-05-20T02:47:52;96459.19;;;11.41;100.00
29379;BME280;16362;47.202;15.258;2023-05-20T02:50:18;96463.19;;;11.45;100.00
29379;BME280;16362;47.202;15.258;2023-05-20T02:52:45;96491.81;;;11.59;100.00
29379;BME280;16362;47.202;15.258;2023-05-20T02:55:14;96512.38;;;11.59;100.00
29379;BME280;16362;47.202;15.258;2023-05-20T02:57:41;96506.03;;;11.60;100.00
29379;BME280;16362;47.202;15.258;2023-05-20T03:00:08;96498.25;;;11.50;100.00
29379;BME280;16362;47.202;15.258;2023-05-20T03:02:39;96487.88;;;11.47;100.00
29379;BME280;16362;47.202;15.258;2023-05-20T03:05:06;96500.78;;;11.43;100.00
29379;BME280;16362;47.202;15.258;2023-05-20T03:07:34;96499.59;;;11.46;100.00
29379;BME280;16362;47.202;15.258;2023-05-20T03:10:02;96487.41;;;11.43;100.00
29379;BME280;16362;47.202;15.258;2023-05-20T03:12:30;96498.75;;;11.45;100.00
29379;BME280;16362;47.202;15.258;2023-05-20T03:14:57;96498.09;;;11.43;100.00
29379;BME280;16362;47.202;15.258;2023-05-20T03:17:24;96500.59;;;11.45;100.00
29379;BME280;16362;47.202;15.258;2023-05-20T03:19:51;96502.09;;;11.48;100.00
29379;BME280;16362;47.202;15.258;2023-05-20T03:22:18;96505.41;;;11.50;100.00
29379;BME280;16362;47.202;15.258;2023-05-20T03:24:45;96510.56;;;11.51;100.00
29379;BME280;16362;47.202;15.258;2023-05-20T03:27:11;96511.41;;;11.52;100.00
29379;BME280;16362;47.202;15.258;2023-05-20T03:29:38;96507.38;;;11.56;100.00
29379;BME280;16362;47.202;15.258;2023-05-20T03:32:05;96509.88;;;11.57;100.00
29379;BME280;16362;47.202;15.258;2023-05-20T03:34:36;96519.56;;;11.58;100.00
29379;BME280;16362;47.202;15.258;2023-05-20T03:37:03;96521.41;;;11.58;100.00
29379;BME280;16362;47.202;15.258;2023-05-20T03:39:30;96513.56;;;11.56;100.00
29379;BME280;16362;47.202;15.258;2023-05-20T03:41:57;96510.88;;;11.56;100.00
29379;BME280;16362;47.202;15.258;2023-05-20T03:44:24;96522.06;;;11.60;100.00
29379;BME280;16362;47.202;15.258;2023-05-20T03:46:51;96512.69;;;11.64;100.00
29379;BME280;16362;47.202;15.258;2023-05-20T03:49:18;96515.53;;;11.62;100.00
29379;BME280;16362;47.202;15.258;2023-05-20T03:51:44;96512.50;;;11.66;100.00
29379;BME280;16362;47.202;15.258;2023-05-20T03:54:11;96516.69;;;11.68;100.00
29379;BME280;16362;47.202;15.258;2023-05-20T03:56:38;96515.00;;;11.67;100.00
29379;BME280;16362;47.202;15.258;2023-05-20T03:59:05;96519.16;;;11.70;100.00
29379;BME280;16362;47.202;15.258;2023-05-20T04:01:32;96518.16;;;11.71;100.00
29379;BME280;16362;47.202;15.258;2023-05-20T04:03:59;96518.81;;;11.73;100.00
29379;BME280;16362;47.202;15.258;2023-05-20T04:06:26;96522.53;;;11.72;100.00
29379;BME280;16362;47.202;15.258;2023-05-20T04:08:53;96525.84;;;11.74;100.00
29379;BME280;16362;47.202;15.258;2023-05-20T04:11:20;96516.44;;;11.78;100.00
29379;BME280;16362;47.202;15.258;2023-05-20T04:13:47;96514.78;;;11.77;100.00
29379;BME280;16362;47.202;15.258;2023-05-20T04:16:13;96519.63;;;11.82;100.00
29379;BME280;16362;47.202;15.258;2023-05-20T04:18:40;96512.91;;;11.86;100.00
29379;BME280;16362;47.202;15.258;2023-05-20T04:21:07;96519.56;;;11.90;100.00
29379;BME280;16362;47.202;15.258;2023-05-20T04:23:34;96518.38;;;11.92;100.00
29379;BME280;16362;47.202;15.258;2023-05-20T04:26:01;96515.19;;;11.97;100.00
29379;BME280;16362;47.202;15.258;2023-05-20T04:28:28;96521.03;;;12.01;100.00
29379;BME280;16362;47.202;15.258;2023-05-20T04:31:00;96523.16;;;12.05;100.00
29379;BME280;16362;47.202;15.258;2023-05-20T04:33:30;96528.63;;;12.12;100.00
29379;BME280;16362;47.202;15.258;2023-05-20T04:35:58;96529.94;;;12.16;100.00
29379;BME280;16362;47.202;15.258;2023-05-20T04:38:26;96516.38;;;12.18;100.00
29379;BME280;16362;47.202;15.258;2023-05-20T04:40:55;96516.50;;;12.24;100.00
29379;BME280;16362;47.202;15.258;2023-05-20T04:43:24;96512.81;;;12.25;100.00
29379;BME280;16362;47.202;15.258;2023-05-20T04:46:00;96515.31;;;12.27;100.00
29379;BME280;16362;47.202;15.258;2023-05-20T04:48:27;96505.78;;;12.33;100.00
29379;BME280;16362;47.202;15.258;2023-05-20T04:50:54;96508.38;;;12.41;100.00
29379;BME280;16362;47.202;15.258;2023-05-20T04:53:21;96517.97;;;12.50;100.00
29379;BME280;16362;47.202;15.258;2023-05-20T04:55:48;96518.28;;;12.55;100.00
29379;BME280;16362;47.202;15.258;2023-05-20T04:58:19;96513.41;;;12.59;100.00
29379;BME280;16362;47.202;15.258;2023-05-20T05:00:50;96516.63;;;12.54;100.00
29379;BME280;16362;47.202;15.258;2023-05-20T05:03:18;96512.09;;;12.55;100.00
29379;BME280;16362;47.202;15.258;2023-05-20T05:05:44;96510.06;;;12.57;100.00
29379;BME280;16362;47.202;15.258;2023-05-20T05:08:11;96508.69;;;12.61;100.00
29379;BME280;16362;47.202;15.258;2023-05-20T05:10:38;96511.84;;;12.64;100.00
29379;BME280;16362;47.202;15.258;2023-05-20T05:13:05;96506.09;;;12.68;100.00
29379;BME280;16362;47.202;15.258;2023-05-20T05:15:32;96517.78;;;12.75;100.00
29379;BME280;16362;47.202;15.258;2023-05-20T05:17:59;96508.00;;;12.82;100.00
29379;BME280;16362;47.202;15.258;2023-05-20T05:20:26;96514.16;;;12.83;100.00
29379;BME280;16362;47.202;15.258;2023-05-20T05:22:53;96518.31;;;12.85;100.00
29379;BME280;16362;47.202;15.258;2023-05-20T05:25:20;96520.84;;;12.87;100.00
29379;BME280;16362;47.202;15.258;2023-05-20T05:27:47;96520.28;;;12.91;100.00
29379;BME280;16362;47.202;15.258;2023-05-20T05:30:16;96517.91;;;12.96;100.00
29379;BME280;16362;47.202;15.258;2023-05-20T05:32:43;96518.53;;;12.98;100.00
29379;BME280;16362;47.202;15.258;2023-05-20T05:35:10;96516.97;;;13.04;100.00
29379;BME280;16362;47.202;15.258;2023-05-20T05:37:37;96527.13;;;13.09;100.00
29379;BME280;16362;47.202;15.258;2023-05-20T05:40:04;96522.41;;;13.11;100.00
29379;BME280;16362;47.202;15.258;2023-05-20T05:42:31;96523.44;;;13.10;100.00
29379;BME280;16362;47.202;15.258;2023-05-20T05:44:58;96522.41;;;13.11;100.00
29379;BME280;16362;47.202;15.258;2023-05-20T05:47:25;96533.41;;;13.16;100.00
29379;BME280;16362;47.202;15.258;2023-05-20T05:49:57;96526.56;;;13.13;100.00
29379;BME280;16362;47.202;15.258;2023-05-20T05:52:26;96531.59;;;13.17;100.00
29379;BME280;16362;47.202;15.258;2023-05-20T05:54:53;96521.78;;;13.24;100.00
29379;BME280;16362;47.202;15.258;2023-05-20T05:57:20;96524.94;;;13.27;100.00
29379;BME280;16362;47.202;15.258;2023-05-20T05:59:46;96524.00;;;13.35;100.00
29379;BME280;16362;47.202;15.258;2023-05-20T06:02:13;96524.88;;;13.36;100.00
29379;BME280;16362;47.202;15.258;2023-05-20T06:04:40;96522.00;;;13.37;100.00
29379;BME280;16362;47.202;15.258;2023-05-20T06:07:07;96519.75;;;13.41;100.00
29379;BME280;16362;47.202;15.258;2023-05-20T06:09:34;96521.44;;;13.42;100.00
29379;BME280;16362;47.202;15.258;2023-05-20T06:12:01;96527.81;;;13.41;100.00
29379;BME280;16362;47.202;15.258;2023-05-20T06:14:28;96529.84;;;13.39;100.00
29379;BME280;16362;47.202;15.258;2023-05-20T06:16:55;96533.16;;;13.41;100.00
29379;BME280;16362;47.202;15.258;2023-05-20T06:19:22;96530.13;;;13.44;100.00
29379;BME280;16362;47.202;15.258;2023-05-20T06:21:49;96525.03;;;13.49;100.00
29379;BME280;16362;47.202;15.258;2023-05-20T06:24:16;96515.22;;;13.56;100.00
29379;BME280;16362;47.202;15.258;2023-05-20T06:26:42;96520.75;;;13.70;100.00
29379;BME280;16362;47.202;15.258;2023-05-20T06:29:11;96523.53;;;13.76;100.00
29379;BME280;16362;47.202;15.258;2023-05-20T06:31:38;96519.25;;;13.82;100.00
29379;BME280;16362;47.202;15.258;2023-05-20T06:34:05;96524.16;;;13.78;100.00
29379;BME280;16362;47.202;15.258;2023-05-20T06:36:32;96519.44;;;13.80;100.00
29379;BME280;16362;47.202;15.258;2023-05-20T06:38:59;96515.34;;;13.85;100.00
29379;BME280;16362;47.202;15.258;2023-05-20T06:41:26;96519.78;;;13.92;100.00
29379;BME280;16362;47.202;15.258;2023-05-20T06:43:53;96513.66;;;13.98;100.00
29379;BME280;16362;47.202;15.258;2023-05-20T06:46:19;96508.22;;;14.13;100.00
29379;BME280;16362;47.202;15.258;2023-05-20T06:48:46;96502.91;;;14.42;100.00
29379;BME280;16362;47.202;15.258;2023-05-20T06:51:13;96501.47;;;14.89;100.00
29379;BME280;16362;47.202;15.258;2023-05-20T06:53:40;96504.41;;;15.29;100.00
29379;BME280;16362;47.202;15.258;2023-05-20T06:56:07;96498.63;;;15.32;100.00
29379;BME280;16362;47.202;15.258;2023-05-20T06:58:34;96500.91;;;15.36;100.00
29379;BME280;16362;47.202;15.258;2023-05-20T07:01:00;96492.50;;;15.45;100.00
29379;BME280;16362;47.202;15.258;2023-05-20T07:03:27;96480.34;;;15.56;100.00
29379;BME280;16362;47.202;15.258;2023-05-20T07:05:54;96483.94;;;15.77;100.00
29379;BME280;16362;47.202;15.258;2023-05-20T07:08:21;96479.47;;;15.97;100.00
29379;BME280;16362;47.202;15.258;2023-05-20T07:10:48;96479.91;;;16.08;100.00
29379;BME280;16362;47.202;15.258;2023-05-20T07:13:15;96481.19;;;16.19;100.00
29379;BME280;16362;47.202;15.258;2023-05-20T07:15:45;96476.22;;;16.36;100.00
29379;BME280;16362;47.202;15.258;2023-05-20T07:18:12;96473.53;;;16.42;100.00
29379;BME280;16362;47.202;15.258;2023-05-20T07:20:39;96465.88;;;16.39;100.00
29379;BME280;16362;47.202;15.258;2023-05-20T07:23:06;96468.13;;;16.42;100.00
29379;BME280;16362;47.202;15.258;2023-05-20T07:25:32;96461.72;;;16.37;100.00
29379;BME280;16362;47.202;15.258;2023-05-20T07:28:00;96460.25;;;16.41;100.00
29379;BME280;16362;47.202;15.258;2023-05-20T07:30:26;96453.44;;;16.45;100.00
29379;BME280;16362;47.202;15.258;2023-05-20T07:32:53;96448.47;;;16.55;100.00
29379;BME280;16362;47.202;15.258;2023-05-20T07:35:20;96445.97;;;16.60;100.00
29379;BME280;16362;47.202;15.258;2023-05-20T07:37:47;96447.59;;;16.75;100.00
29379;BME280;16362;47.202;15.258;2023-05-20T07:40:14;96449.28;;;16.89;100.00
29379;BME280;16362;47.202;15.258;2023-05-20T07:42:42;96450.91;;;17.10;100.00
29379;BME280;16362;47.202;15.258;2023-05-20T07:45:09;96452.13;;;17.21;100.00
29379;BME280;16362;47.202;15.258;2023-05-20T07:47:37;96450.41;;;17.40;100.00
29379;BME280;16362;47.202;15.258;2023-05-20T07:50:04;96444.53;;;17.57;100.00
29379;BME280;16362;47.202;15.258;2023-05-20T07:52:31;96439.13;;;17.57;100.00
29379;BME280;16362;47.202;15.258;2023-05-20T07:55:18;96440.97;;;17.56;100.00
29379;BME280;16362;47.202;15.258;2023-05-20T07:57:45;96438.25;;;17.63;100.00
29379;BME280;16362;47.202;15.258;2023-05-20T08:00:12;96435.44;;;17.83;100.00
29379;BME280;16362;47.202;15.258;2023-05-20T08:02:38;96430.19;;;18.01;100.00
29379;BME280;16362;47.202;15.258;2023-05-20T08:05:06;96436.22;;;18.29;100.00
29379;BME280;16362;47.202;15.258;2023-05-20T08:07:34;96439.81;;;18.48;100.00
29379;BME280;16362;47.202;15.258;2023-05-20T08:10:01;96422.03;;;18.40;100.00
29379;BME280;16362;47.202;15.258;2023-05-20T08:12:28;96437.16;;;18.41;100.00
29379;BME280;16362;47.202;15.258;2023-05-20T08:14:54;96430.50;;;18.44;100.00
29379;BME280;16362;47.202;15.258;2023-05-20T08:17:21;96433.75;;;18.27;100.00
29379;BME280;16362;47.202;15.258;2023-05-20T08:19:48;96438.03;;;18.10;100.00
29379;BME280;16362;47.202;15.258;2023-05-20T08:22:15;96436.25;;;17.90;100.00
29379;BME280;16362;47.202;15.258;2023-05-20T08:24:42;96431.72;;;17.84;100.00
29379;BME280;16362;47.202;15.258;2023-05-20T08:27:09;96439.31;;;17.62;100.00
29379;BME280;16362;47.202;15.258;2023-05-20T08:29:36;96443.88;;;17.61;100.00
29379;BME280;16362;47.202;15.258;2023-05-20T08:32:03;96438.28;;;17.56;100.00
29379;BME280;16362;47.202;15.258;2023-05-20T08:34:30;96447.50;;;17.35;100.00
29379;BME280;16362;47.202;15.258;2023-05-20T08:36:56;96442.94;;;17.36;100.00
29379;BME280;16362;47.202;15.258;2023-05-20T08:39:24;96441.91;;;17.30;100.00
29379;BME280;16362;47.202;15.258;2023-05-20T08:41:52;96437.44;;;17.62;100.00
29379;BME280;16362;47.202;15.258;2023-05-20T08:44:20;96429.63;;;17.86;100.00
29379;BME280;16362;47.202;15.258;2023-05-20T08:46:47;96419.44;;;17.95;100.00
29379;BME280;16362;47.202;15.258;2023-05-20T08:49:15;96421.06;;;18.03;100.00
29379;BME280;16362;47.202;15.258;2023-05-20T08:51:42;96420.19;;;18.02;100.00
29379;BME280;16362;47.202;15.258;2023-05-20T08:54:09;96412.69;;;18.11;100.00
29379;BME280;16362;47.202;15.258;2023-05-20T08:56:37;96415.03;;;18.00;100.00
29379;BME280;16362;47.202;15.258;2023-05-20T08:59:04;96407.22;;;18.43;100.00
29379;BME280;16362;47.202;15.258;2023-05-20T09:01:34;96408.28;;;18.85;100.00
29379;BME280;16362;47.202;15.258;2023-05-20T09:04:05;96403.84;;;18.98;100.00
29379;BME280;16362;47.202;15.258;2023-05-20T09:06:44;96408.44;;;19.16;99.39
29379;BME280;16362;47.202;15.258;2023-05-20T09:09:13;96392.47;;;19.08;99.49
29379;BME280;16362;47.202;15.258;2023-05-20T09:11:40;96391.06;;;19.24;100.00
29379;BME280;16362;47.202;15.258;2023-05-20T09:14:07;96393.97;;;18.85;96.62
29379;BME280;16362;47.202;15.258;2023-05-20T09:16:34;96393.13;;;18.84;96.77
29379;BME280;16362;47.202;15.258;2023-05-20T09:19:04;96394.69;;;18.99;99.59
29379;BME280;16362;47.202;15.258;2023-05-20T09:21:34;96389.56;;;19.09;98.78
29379;BME280;16362;47.202;15.258;2023-05-20T09:24:01;96384.22;;;19.21;95.01
29379;BME280;16362;47.202;15.258;2023-05-20T09:26:28;96397.22;;;19.12;95.30
29379;BME280;16362;47.202;15.258;2023-05-20T09:28:58;96401.13;;;19.16;97.13
29379;BME280;16362;47.202;15.258;2023-05-20T09:31:26;96397.97;;;19.19;95.45
29379;BME280;16362;47.202;15.258;2023-05-20T09:33:55;96386.53;;;19.36;95.52
29379;BME280;16362;47.202;15.258;2023-05-20T09:36:22;96390.19;;;19.60;95.89
29379;BME280;16362;47.202;15.258;2023-05-20T09:38:53;96383.53;;;19.75;95.12
29379;BME280;16362;47.202;15.258;2023-05-20T09:41:32;96381.06;;;19.73;94.08
29379;BME280;16362;47.202;15.258;2023-05-20T09:43:59;96377.16;;;19.69;95.44
29379;BME280;16362;47.202;15.258;2023-05-20T09:46:27;96385.84;;;19.59;96.93
29379;BME280;16362;47.202;15.258;2023-05-20T09:48:54;96380.53;;;19.83;92.08
29379;BME280;16362;47.202;15.258;2023-05-20T09:51:22;96381.00;;;20.22;90.23
29379;BME280;16362;47.202;15.258;2023-05-20T09:53:50;96369.84;;;20.54;95.36
29379;BME280;16362;47.202;15.258;2023-05-20T09:56:19;96369.34;;;20.45;89.32
29379;BME280;16362;47.202;15.258;2023-05-20T09:58:48;96370.31;;;20.39;87.83
29379;BME280;16362;47.202;15.258;2023-05-20T10:01:16;96378.25;;;19.80;90.75
29379;BME280;16362;47.202;15.258;2023-05-20T10:03:43;96370.94;;;19.99;90.92
29379;BME280;16362;47.202;15.258;2023-05-20T10:12:46;96369.53;;;20.20;88.73
29379;BME280;16362;47.202;15.258;2023-05-20T10:15:20;96362.41;;;19.83;89.47
29379;BME280;16362;47.202;15.258;2023-05-20T10:20:17;96370.31;;;19.97;85.71
29379;BME280;16362;47.202;15.258;2023-05-20T10:22:54;96365.94;;;19.84;86.30
29379;BME280;16362;47.202;15.258;2023-05-20T10:25:26;96371.50;;;19.71;87.72
29379;BME280;16362;47.202;15.258;2023-05-20T10:28:06;96361.34;;;19.84;89.03
29379;BME280;16362;47.202;15.258;2023-05-20T10:30:34;96365.63;;;19.92;91.68
29379;BME280;16362;47.202;15.258;2023-05-20T10:33:03;96362.13;;;19.73;90.06
29379;BME280;16362;47.202;15.258;2023-05-20T10:35:32;96352.72;;;19.76;90.60
29379;BME280;16362;47.202;15.258;2023-05-20T10:38:10;96349.00;;;19.58;86.68
29379;BME280;16362;47.202;15.258;2023-05-20T10:40:37;96347.63;;;20.10;89.65
29379;BME280;16362;47.202;15.258;2023-05-20T10:43:12;96351.06;;;20.17;82.95
29379;BME280;16362;47.202;15.258;2023-05-20T10:45:53;96353.19;;;20.15;82.21
29379;BME280;16362;47.202;15.258;2023-05-20T10:48:32;96354.66;;;19.87;84.12
29379;BME280;16362;47.202;15.258;2023-05-20T10:51:01;96350.41;;;19.91;82.77
29379;BME280;16362;47.202;15.258;2023-05-20T10:53:38;96349.09;;;19.82;85.32
29379;BME280;16362;47.202;15.258;2023-05-20T10:56:15;96358.16;;;19.57;83.65
29379;BME280;16362;47.202;15.258;2023-05-20T10:58:43;96351.41;;;19.48;88.23
29379;BME280;16362;47.202;15.258;2023-05-20T11:01:10;96342.88;;;19.32;86.63
29379;BME280;16362;47.202;15.258;2023-05-20T11:03:39;96358.03;;;19.33;83.78
29379;BME280;16362;47.202;15.258;2023-05-20T11:06:16;96359.47;;;19.36;89.99
29379;BME280;16362;47.202;15.258;2023-05-20T11:08:44;96350.84;;;19.27;83.02
29379;BME280;16362;47.202;15.258;2023-05-20T11:11:12;96347.47;;;19.32;86.55
29379;BME280;16362;47.202;15.258;2023-05-20T11:13:40;96356.25;;;19.46;85.70
29379;BME280;16362;47.202;15.258;2023-05-20T11:16:07;96350.03;;;19.57;80.17
29379;BME280;16362;47.202;15.258;2023-05-20T11:18:34;96347.22;;;19.82;81.96
29379;BME280;16362;47.202;15.258;2023-05-20T11:21:01;96336.28;;;20.01;80.84
29379;BME280;16362;47.202;15.258;2023-05-20T11:23:29;96341.81;;;19.94;81.91
29379;BME280;16362;47.202;15.258;2023-05-20T11:25:56;96337.25;;;19.95;84.40
29379;BME280;16362;47.202;15.258;2023-05-20T11:28:24;96334.44;;;20.01;81.12
29379;BME280;16362;47.202;15.258;2023-05-20T11:30:51;96327.56;;;19.87;80.31
29379;BME280;16362;47.202;15.258;2023-05-20T11:33:18;96329.25;;;20.12;82.98
29379;BME280;16362;47.202;15.258;2023-05-20T11:35:46;96323.63;;;20.25;81.78
29379;BME280;16362;47.202;15.258;2023-05-20T11:38:14;96326.44;;;20.30;82.28
29379;BME280;16362;47.202;15.258;2023-05-20T11:40:54;96316.22;;;20.32;76.56
29379;BME280;16362;47.202;15.258;2023-05-20T11:43:23;96319.84;;;20.26;75.95
29379;BME280;16362;47.202;15.258;2023-05-20T11:45:56;96308.78;;;20.28;69.95
29379;BME280;16362;47.202;15.258;2023-05-20T11:48:25;96320.91;;;20.25;72.77
29379;BME280;16362;47.202;15.258;2023-05-20T11:50:54;96311.97;;;20.25;72.66
29379;BME280;16362;47.202;15.258;2023-05-20T11:53:22;96318.56;;;20.29;67.15
29379;BME280;16362;47.202;15.258;2023-05-20T11:55:57;96310.44;;;20.41;77.40
29379;BME280;16362;47.202;15.258;2023-05-20T11:58:26;96310.78;;;20.56;68.53
29379;BME280;16362;47.202;15.258;2023-05-20T12:00:55;96305.81;;;20.89;66.29
29379;BME280;16362;47.202;15.258;2023-05-20T12:03:35;96297.41;;;21.02;67.97
29379;BME280;16362;47.202;15.258;2023-05-20T12:06:02;96291.59;;;21.10;67.96
29379;BME280;16362;47.202;15.258;2023-05-20T12:08:29;96295.81;;;21.18;65.58
29379;BME280;16362;47.202;15.258;2023-05-20T12:10:56;96294.59;;;20.85;64.39
29379;BME280;16362;47.202;15.258;2023-05-20T12:13:23;96284.72;;;20.91;66.62
29379;BME280;16362;47.202;15.258;2023-05-20T12:15:50;96280.69;;;20.93;66.43
29379;BME280;16362;47.202;15.258;2023-05-20T12:18:17;96296.06;;;20.76;66.71
29379;BME280;16362;47.202;15.258;2023-05-20T12:20:43;96291.44;;;20.64;64.69
29379;BME280;16362;47.202;15.258;2023-05-20T12:23:10;96296.03;;;20.52;67.06
29379;BME280;16362;47.202;15.258;2023-05-20T12:25:37;96291.44;;;20.52;67.81
29379;BME280;16362;47.202;15.258;2023-05-20T12:28:04;96295.47;;;20.50;67.49
29379;BME280;16362;47.202;15.258;2023-05-20T12:30:32;96297.22;;;20.44;68.43
29379;BME280;16362;47.202;15.258;2023-05-20T12:32:59;96309.72;;;20.33;67.57
29379;BME280;16362;47.202;15.258;2023-05-20T12:35:40;96296.06;;;20.16;66.93
29379;BME280;16362;47.202;15.258;2023-05-20T12:38:07;96301.09;;;20.01;72.03
29379;BME280;16362;47.202;15.258;2023-05-20T12:40:35;96300.63;;;19.92;70.41
29379;BME280;16362;47.202;15.258;2023-05-20T12:43:04;96283.44;;;19.87;73.36
29379;BME280;16362;47.202;15.258;2023-05-20T12:45:31;96295.88;;;19.88;71.62
29379;BME280;16362;47.202;15.258;2023-05-20T12:47:58;96293.53;;;19.91;72.83
29379;BME280;16362;47.202;15.258;2023-05-20T12:50:25;96297.19;;;19.85;74.54
29379;BME280;16362;47.202;15.258;2023-05-20T12:52:52;96289.09;;;19.85;70.65
29379;BME280;16362;47.202;15.258;2023-05-20T12:55:19;96286.59;;;19.95;75.05
29379;BME280;16362;47.202;15.258;2023-05-20T12:57:46;96283.69;;;20.09;71.23
29379;BME280;16362;47.202;15.258;2023-05-20T13:00:14;96284.88;;;20.25;65.08